Skip Navigation Links
NOAA logo - Click to go to the NOAA homepage
NOAA's National Weather Service
Alaska Aviation Weather Unit
  NWS logo - Click to go to the NWS homepage
Left Navbar Graphic     09 AKDT = 17 GMT

   
NOAA is celebrating 200 years of science, service, and stewardship. Visit the NOAA 200th celebration Web site to learn more.
USA.gov is the U.S. Government's official Web portal to all Federal, state and local government Web resources and services.
Facebook
NWS on Facebook

Important Change Regarding the AAWU Web Presence

 

Over the last several months, the AAWU has been working to navigate its webpages to a nationally supported server. Security, as well as other needs, have necessitated the change.  In the process, we have made an effort to enhance the functionality of our website, as well as some of our products. As of June 20, 2017, aawu.arh.noaa.gov will be discontinued. The new AAWU web address is weather.gov/aawu. It is now live and will run in-parallel with the old site until it is discontinued. Please send any feedback or questions regarding the new webpages to nws.ar.aawu.webauthors@noaa.gov.  Thank you for your patience during this time of transition.
AAWU Home :: Display TAF Add Bookmark
TAF PAEI 271200Z 2712/2818 VRB06KT 9999 SCT070 BKN100 QNH2996INS
      TX14/2801Z TN04/2712Z=
METAR PAEI 271158Z AUTO 00000KT 10SM BKN085 OVC110 04/M01 A3002=

METAR PAEI 271258Z AUTO 00000KT 10SM OVC080 03/M01 A3003=

METAR PAEI 271358Z AUTO 33004KT 10SM BKN070 03/M01 A3003=

METAR PAEI 271458Z AUTO 00000KT 10SM FEW140 05/M01 A3004=

METAR PAEI 271558Z AUTO 00000KT 10SM BKN100 06/M01 A3004=

METAR PAEI 271658Z AUTO 00000KT 10SM FEW120 08/00 A3005=


NOAA's National Weather Service
Alaska Aviation Weather Unit
6930 Sand Lake Road
Anchorage, AK 99502-1845
Disclaimer
Credits
Glossary
Privacy Policy
About Us
Career Opportunities
Contact AAWU Internet Services Site last modified: April, 17th 2012